createdAt,value
2023-01-06T00:05:43.687Z,5.43
2023-01-06T00:15:50.621Z,5.25
2023-01-06T00:25:56.969Z,5.06
2023-01-06T00:36:03.463Z,4.95
2023-01-06T00:46:10.107Z,4.70
2023-01-06T00:56:16.434Z,4.51
2023-01-06T01:06:22.778Z,4.51
2023-01-06T01:16:29.127Z,4.46
2023-01-06T01:26:33.592Z,4.40
2023-01-06T01:36:42.095Z,4.31
2023-01-06T01:46:48.644Z,4.24
2023-01-06T01:56:59.205Z,4.26
2023-01-06T02:07:06.010Z,4.37
2023-01-06T02:17:30.434Z,4.47
2023-01-06T02:28:01.514Z,4.37
2023-01-06T02:38:35.035Z,4.47
2023-01-06T02:48:53.820Z,4.43
2023-01-06T02:59:11.406Z,4.49
2023-01-06T03:09:20.502Z,4.48
2023-01-06T03:19:26.885Z,4.40
2023-01-06T03:29:33.377Z,4.33
2023-01-06T03:39:42.686Z,4.23
2023-01-06T03:50:28.176Z,4.14
2023-01-06T04:00:38.214Z,4.05
2023-01-06T04:10:44.646Z,3.99
2023-01-06T04:20:50.917Z,3.85
2023-01-06T04:31:01.417Z,3.74
2023-01-06T04:41:07.749Z,3.78
2023-01-06T04:51:14.101Z,3.66
2023-01-06T05:01:20.495Z,3.76
2023-01-06T05:11:27.972Z,3.76
2023-01-06T05:21:34.276Z,3.88
2023-01-06T05:31:40.599Z,3.99
2023-01-06T05:41:47.079Z,4.04
2023-01-06T05:51:53.395Z,3.91
2023-01-06T06:01:59.739Z,3.99
2023-01-06T06:12:06.292Z,3.97
2023-01-06T06:22:12.667Z,3.80
2023-01-06T06:32:19.025Z,3.79
2023-01-06T06:42:25.319Z,3.72
2023-01-06T06:52:31.649Z,3.68
2023-01-06T07:02:37.939Z,3.72
2023-01-06T07:12:44.251Z,3.74
2023-01-06T07:22:50.503Z,3.85
2023-01-06T07:32:56.789Z,3.92
2023-01-06T07:43:10.810Z,3.98
2023-01-06T07:53:17.163Z,4.11
2023-01-06T08:03:23.490Z,4.22
2023-01-06T08:13:29.816Z,4.42
2023-01-06T08:23:36.871Z,4.40
2023-01-06T08:33:43.689Z,4.50
2023-01-06T08:43:50.261Z,4.36
2023-01-06T08:53:57.033Z,4.40
2023-01-06T09:04:06.417Z,4.44
2023-01-06T09:14:15.306Z,4.53
2023-01-06T09:24:21.616Z,4.49
2023-01-06T09:34:27.937Z,4.63
2023-01-06T09:45:07.875Z,4.64
2023-01-06T09:55:35.754Z,4.98
2023-01-06T10:05:58.182Z,4.96
2023-01-06T10:16:11.511Z,5.16
2023-01-06T10:26:29.685Z,5.37
2023-01-06T10:36:42.397Z,5.96
2023-01-06T10:46:50.715Z,6.66
2023-01-06T10:57:01.624Z,6.74
2023-01-06T11:07:12.344Z,6.79
2023-01-06T11:17:22.889Z,7.41
2023-01-06T11:27:29.431Z,7.67
2023-01-06T11:37:40.761Z,9.11
2023-01-06T11:47:50.198Z,8.50
2023-01-06T11:58:03.847Z,8.40
2023-01-06T12:08:19.334Z,8.54
2023-01-06T12:18:29.714Z,8.39
2023-01-06T12:28:38.879Z,8.60
2023-01-06T12:38:55.115Z,8.47
2023-01-06T12:49:06.145Z,8.62
2023-01-06T12:59:49.790Z,7.91
2023-01-06T13:10:00.518Z,8.13
2023-01-06T13:20:09.632Z,7.95
2023-01-06T13:30:41.255Z,7.63
2023-01-06T13:40:50.127Z,7.66
2023-01-06T13:50:57.320Z,7.69
2023-01-06T14:01:28.483Z,7.70
2023-01-06T14:11:38.971Z,7.63
2023-01-06T14:21:46.351Z,7.58
2023-01-06T14:31:52.709Z,7.57
2023-01-06T14:41:59.340Z,7.61
2023-01-06T14:52:10.881Z,7.47
2023-01-06T15:02:17.883Z,7.47
2023-01-06T15:12:31.379Z,7.46
2023-01-06T15:22:37.689Z,7.41
2023-01-06T15:32:44.324Z,7.44
2023-01-06T15:42:50.706Z,7.39
2023-01-06T15:53:05.464Z,7.20
2023-01-06T16:03:23.118Z,7.28
2023-01-06T16:13:30.385Z,7.33
2023-01-06T16:23:38.272Z,7.37
2023-01-06T16:33:48.980Z,7.35
2023-01-06T16:43:55.247Z,7.38
2023-01-06T16:54:01.620Z,7.47
2023-01-06T17:04:12.715Z,7.45
2023-01-06T17:14:20.875Z,7.48
2023-01-06T17:24:27.608Z,7.56
2023-01-06T17:34:34.907Z,7.67
2023-01-06T17:44:44.036Z,7.75
2023-01-06T17:55:12.583Z,7.78
2023-01-06T18:05:28.233Z,7.66
2023-01-06T18:15:35.447Z,7.72
2023-01-06T18:25:41.760Z,7.78
2023-01-06T18:35:48.240Z,7.82
2023-01-06T18:45:58.028Z,7.84
2023-01-06T18:56:10.193Z,7.99
2023-01-06T19:06:17.086Z,8.06
2023-01-06T19:16:38.647Z,8.15
2023-01-06T19:26:46.141Z,8.16
2023-01-06T19:36:53.950Z,8.22
2023-01-06T19:47:02.309Z,8.29
2023-01-06T19:57:21.137Z,8.39
2023-01-06T20:07:27.593Z,8.37
2023-01-06T20:17:33.858Z,8.44
2023-01-06T20:27:40.270Z,8.47
2023-01-06T20:37:46.611Z,8.55
2023-01-06T20:47:52.990Z,8.55
2023-01-06T20:57:59.351Z,8.57
2023-01-06T21:08:05.854Z,8.58
2023-01-06T21:18:12.118Z,8.61
2023-01-06T21:28:18.952Z,8.61
2023-01-06T21:38:25.338Z,8.71
2023-01-06T21:48:31.675Z,8.77
2023-01-06T21:58:38.094Z,8.80
2023-01-06T22:08:44.485Z,8.75
2023-01-06T22:18:50.979Z,8.62
2023-01-06T22:28:57.282Z,8.48
2023-01-06T22:39:03.562Z,8.46
2023-01-06T22:49:10.473Z,8.40
2023-01-06T22:59:17.221Z,8.43
2023-01-06T23:09:23.527Z,8.48
2023-01-06T23:19:29.878Z,8.51
2023-01-06T23:29:36.817Z,8.53
2023-01-06T23:39:43.106Z,8.51
2023-01-06T23:49:50.308Z,8.40
2023-01-06T23:59:56.597Z,8.27
